Portada
METAR-TAF:

METAR-TAF

Aeropuertos :

Aeropuerto Internacional de Los Cabos

San José Del Cabo, México

latitud: 23-09N, longitud: 109-42W, altitud: 109 m

Observación

El informe se hizo hace 12 minutos, a las 16:33 UTC
Viento 5 kt del norte
Temperatura 29°C
Humedad 33%
Presión 1013 hPa
Visibilidad: 19.3 km
Cielo despejado

METAR: MMSD 271633Z RTD 36005KT 12SM SKC 29/11 A2992

Hora: 10:45 (16:45 UTC)

Pronóstico

El informe se hizo hace 12 horas y 10 minutos, a las 04:35 UTC
Pronóstico válido del 27 a las 06 UTC al 28 a las 06 UTC
Viento kt del norte
Visibilidad: 10 km
Nubes dispersas a una altura de 25000 ft
A partir de las 27 a las 1600 UTC
Viento 10 kt del sureste
Visibilidad: 10 km
Cielo nuboso a una altura de 25000 ft
A partir de las 28 a las 0300 UTC
Viento 5 kt del este-noreste
Visibilidad: 10 km
Nubes dispersas a una altura de 25000 ft

TAF: MMSD 270435Z 2706/2806 00000KT P6SM SCT250 FM271600 14010KT P6SM BKN250 FM280300 06005KT P6SM SCT250

Observaciones y pronósticos meteorológicos de más de 4000 aeropuertos (mensajes METAR y TAF).

Los puntos amarillos y rojos representan las estaciones disponibles.

Ponga el ratón en el punto deseado para ver el nombre de la estación.

Haga clic para ver las observaciones y los pronósticos meteorológicos.

Para cambiar el mapa : haga clic en los botones verdes con una cruz de color negro para hacer un zoom, en el botón verde con un guión para alejar o en las flechas verdes para mapas adyacentes.


METAR-TAF: